Utopia Creek, Alaska
Current Conditions -  °F | °C
As of 6:55 AM on Wednesday 22 Oct 2014 (Local Time) from PAIM Reporting Station
Overcast Overcast  
Wind Chill: 17°   Ceiling: 5000
Heat Index: 27°   Visibility: 10mi
Dew Point: 19°   Wind: 12mph
Humidity: 73%   Direction: 90°E
Pressure: 29.6"   Gusts: NA
Location:  65.99°N, 153.7°W
Report Text: PAIM 221455Z AUTO 09010KT 060V130 10SM OVC050 M03/M07 A2960 RMK AO2 SLP046 T10281071 52008
Loading
Personal Weather Stations






























Interactive Weather Map
Tropical Storm Tracking
New forecast layout! Learn more

10-Day Weather Forecast

Advertisements
Track Severe Weather on mobile